Time;durP1;ratioP1;P1;durP2;ratioP2;P2;SDS_P1;SDS_P2;PMS_P1;PMS_P2;Temp;Humidity;BMP_temperature;BMP_pressure;BME280_temperature;BME280_humidity;BME280_pressure;Samples;Min_cycle;Max_cycle;Signal;HPM_P1;HPM_P2
2022/03/03 00:01:51;;;;;;;11.38;10.38;;;-7.60;99.90;;;;;;5085868;27;20571;-59
2022/03/03 00:04:31;;;;;;;11.88;10.75;;;-7.60;99.90;;;;;;5106388;27;20961;-59
2022/03/03 00:07:11;;;;;;;10.52;9.63;;;-7.70;99.90;;;;;;5085483;28;20552;-59
2022/03/03 00:09:51;;;;;;;11.57;10.60;;;-7.70;99.90;;;;;;5147444;27;20943;-59
2022/03/03 00:12:31;;;;;;;11.07;10.10;;;-7.80;99.90;;;;;;5085940;27;20535;-59
2022/03/03 00:15:11;;;;;;;11.48;10.57;;;-7.90;99.90;;;;;;5147869;27;20534;-59
2022/03/03 00:17:50;;;;;;;11.85;10.80;;;-8.00;99.90;;;;;;5085647;28;20656;-59
2022/03/03 00:20:30;;;;;;;11.35;10.38;;;-8.00;99.90;;;;;;5106289;27;20673;-59
2022/03/03 00:23:10;;;;;;;10.73;9.75;;;-8.00;99.90;;;;;;5086171;28;20675;-59
2022/03/03 00:25:50;;;;;;;10.75;9.85;;;-8.10;99.90;;;;;;5085058;27;20543;-59
2022/03/03 00:28:30;;;;;;;10.68;9.77;;;-8.10;99.90;;;;;;5106010;27;20541;-59
2022/03/03 00:31:10;;;;;;;11.30;10.30;;;-8.00;99.90;;;;;;5106254;27;20674;-59
2022/03/03 00:33:49;;;;;;;10.45;9.60;;;-7.90;99.90;;;;;;5085941;28;20679;-59
2022/03/03 00:36:29;;;;;;;11.50;10.35;;;-8.00;99.90;;;;;;5106374;27;20910;-59
2022/03/03 00:39:09;;;;;;;10.95;9.93;;;-8.10;99.90;;;;;;5105884;27;21082;-58
2022/03/03 00:41:49;;;;;;;10.80;9.90;;;-8.10;99.90;;;;;;5127306;27;20548;-59
2022/03/03 00:44:29;;;;;;;10.85;9.95;;;-8.20;99.90;;;;;;5106402;27;20665;-58
2022/03/03 00:47:09;;;;;;;11.13;10.23;;;-8.20;99.90;;;;;;5127236;27;20540;-59
2022/03/03 00:49:48;;;;;;;10.43;9.43;;;-8.20;99.90;;;;;;5127131;27;20904;-59
2022/03/03 00:52:28;;;;;;;10.65;9.77;;;-8.20;99.90;;;;;;5086346;28;20695;-59
2022/03/03 00:55:09;;;;;;;9.57;8.77;;;-8.30;99.90;;;;;;5147504;27;20649;-59
2022/03/03 00:57:49;;;;;;;9.18;8.32;;;-8.30;99.90;;;;;;5085415;27;20539;-59
2022/03/03 01:00:29;;;;;;;10.07;9.18;;;-8.30;99.90;;;;;;5105948;27;20962;-58
2022/03/03 01:03:09;;;;;;;10.15;9.35;;;-8.20;99.90;;;;;;5086114;28;21208;-59
2022/03/03 01:05:49;;;;;;;10.35;9.38;;;-8.20;99.90;;;;;;5086102;28;20663;-59
2022/03/03 01:08:29;;;;;;;9.95;9.05;;;-8.20;99.90;;;;;;5105899;27;20555;-59
2022/03/03 01:11:09;;;;;;;10.35;9.45;;;-8.30;99.90;;;;;;5147778;27;20554;-59
2022/03/03 01:13:48;;;;;;;9.50;8.75;;;-8.30;99.90;;;;;;5106339;27;20689;-59
2022/03/03 01:16:28;;;;;;;10.35;9.55;;;-8.30;99.90;;;;;;5148155;27;20534;-59
2022/03/03 01:19:08;;;;;;;10.85;9.93;;;-8.30;99.90;;;;;;5085849;27;21068;-59
2022/03/03 01:21:48;;;;;;;11.15;10.10;;;-8.40;99.90;;;;;;5086038;28;20748;-59
2022/03/03 01:24:28;;;;;;;11.70;10.60;;;-8.50;99.90;;;;;;5147236;27;20538;-59
2022/03/03 01:27:07;;;;;;;10.80;9.90;;;-8.50;99.90;;;;;;5085932;27;20545;-59
2022/03/03 01:29:47;;;;;;;11.15;10.05;;;-8.60;99.90;;;;;;5147289;27;20560;-59
2022/03/03 01:32:27;;;;;;;11.63;10.57;;;-8.60;99.90;;;;;;5126743;27;20524;-59
2022/03/03 01:35:08;;;;;;;10.90;9.65;;;-8.60;99.90;;;;;;5106313;27;20666;-59
2022/03/03 01:37:47;;;;;;;10.32;9.32;;;-8.70;99.90;;;;;;5104803;27;20541;-59
2022/03/03 01:40:27;;;;;;;10.15;9.35;;;-8.50;99.90;;;;;;5077384;28;21023;-59
2022/03/03 01:43:07;;;;;;;12.02;11.02;;;-8.50;99.90;;;;;;5082462;28;21043;-59
2022/03/03 01:45:46;;;;;;;11.68;10.57;;;-8.50;99.90;;;;;;5105382;27;20681;-59
2022/03/03 01:48:26;;;;;;;12.13;11.13;;;-8.60;99.90;;;;;;5105584;27;20669;-59
2022/03/03 01:51:06;;;;;;;12.82;11.55;;;-8.60;99.90;;;;;;5106499;27;20586;-59
2022/03/03 01:53:46;;;;;;;11.40;10.50;;;-8.60;99.90;;;;;;5085839;28;20660;-59
2022/03/03 01:56:26;;;;;;;11.93;10.93;;;-8.70;99.90;;;;;;5085905;28;21023;-59
2022/03/03 01:59:06;;;;;;;12.13;11.18;;;-8.80;99.90;;;;;;5105749;27;21194;-59
2022/03/03 02:01:46;;;;;;;12.05;10.98;;;-8.80;99.90;;;;;;5106258;27;20685;-59
2022/03/03 02:04:25;;;;;;;11.27;10.38;;;-8.80;99.90;;;;;;5085846;28;20667;-59
2022/03/03 02:07:05;;;;;;;11.98;10.98;;;-8.80;99.90;;;;;;5085716;27;20552;-59
2022/03/03 02:09:45;;;;;;;10.98;10.00;;;-8.80;99.90;;;;;;5086050;28;21021;-59
2022/03/03 02:12:24;;;;;;;12.57;11.48;;;-8.80;99.90;;;;;;5147471;27;21205;-59
2022/03/03 02:15:06;;;;;;;11.57;10.57;;;-8.80;99.90;;;;;;5106417;27;20573;-59
2022/03/03 02:17:46;;;;;;;11.45;10.35;;;-8.80;99.90;;;;;;5105985;27;20685;-59
2022/03/03 02:20:27;;;;;;;11.15;10.25;;;-8.80;99.90;;;;;;5147280;27;20654;-58
2022/03/03 02:23:07;;;;;;;11.25;10.27;;;-8.90;99.90;;;;;;5086103;28;20672;-59
2022/03/03 02:25:47;;;;;;;12.27;11.18;;;-8.80;99.90;;;;;;5148069;27;20664;-57
2022/03/03 02:28:27;;;;;;;11.40;10.27;;;-8.80;99.90;;;;;;5086375;27;20569;-59
2022/03/03 02:31:08;;;;;;;11.27;10.27;;;-8.70;99.90;;;;;;5085888;28;20544;-59
2022/03/03 02:33:48;;;;;;;10.90;10.00;;;-8.80;99.90;;;;;;5102446;27;20677;-59
2022/03/03 02:36:29;;;;;;;12.63;11.48;;;-8.80;99.90;;;;;;5105593;27;20534;-59
2022/03/03 02:39:09;;;;;;;11.23;10.10;;;-8.80;99.90;;;;;;5147251;27;20653;-59
2022/03/03 02:41:49;;;;;;;11.13;10.23;;;-8.80;99.90;;;;;;5086021;27;20555;-58
2022/03/03 02:44:29;;;;;;;11.13;10.13;;;-8.80;99.90;;;;;;5085873;28;21016;-59
2022/03/03 02:47:09;;;;;;;11.13;10.25;;;-8.80;99.90;;;;;;5126635;27;20544;-59
2022/03/03 02:49:49;;;;;;;11.73;10.57;;;-8.80;99.90;;;;;;5086248;27;20549;-59
2022/03/03 02:52:28;;;;;;;11.73;10.70;;;-8.90;99.90;;;;;;5085796;28;20672;-59
2022/03/03 02:55:10;;;;;;;9.85;8.95;;;-8.90;99.90;;;;;;5106675;27;20673;-59
2022/03/03 02:57:56;;;;;;;10.13;9.23;;;-8.90;99.90;;;;;;5153453;27;20942;-59
2022/03/03 03:00:42;;;;;;;9.30;8.60;;;-8.90;99.90;;;;;;5140488;27;21198;-59
2022/03/03 03:03:22;;;;;;;10.10;9.30;;;-8.90;99.90;;;;;;5106453;27;20672;-59
2022/03/03 03:06:02;;;;;;;10.68;9.48;;;-8.90;99.90;;;;;;5147788;27;21054;-59
2022/03/03 03:08:42;;;;;;;10.95;10.05;;;-9.00;99.90;;;;;;5083565;27;21208;-59
2022/03/03 03:11:21;;;;;;;11.20;10.27;;;-9.00;99.90;;;;;;5125209;27;20559;-59
2022/03/03 03:14:01;;;;;;;10.48;9.48;;;-9.10;99.90;;;;;;5147374;27;20539;-59
2022/03/03 03:16:41;;;;;;;10.55;9.75;;;-9.10;99.90;;;;;;5126668;27;20659;-59
2022/03/03 03:19:21;;;;;;;10.60;9.70;;;-9.10;99.90;;;;;;5106242;27;20685;-59
2022/03/03 03:22:02;;;;;;;10.70;9.48;;;-9.10;99.90;;;;;;5106307;27;21198;-59
2022/03/03 03:24:41;;;;;;;10.45;9.63;;;-9.10;99.90;;;;;;5165295;27;20659;-59
2022/03/03 03:27:20;;;;;;;10.27;9.38;;;-9.20;99.90;;;;;;5106413;27;20658;-59
2022/03/03 03:30:01;;;;;;;10.05;9.15;;;-9.30;99.90;;;;;;5106670;27;20669;-59
2022/03/03 03:32:40;;;;;;;11.40;10.30;;;-9.40;99.90;;;;;;5086079;27;20535;-59
2022/03/03 03:35:20;;;;;;;11.90;10.80;;;-9.30;99.90;;;;;;5152279;27;20529;-57
2022/03/03 03:38:01;;;;;;;11.05;10.07;;;-9.40;99.90;;;;;;5147057;27;20542;-59
2022/03/03 03:40:40;;;;;;;12.88;11.63;;;-9.30;99.90;;;;;;5154291;27;20545;-59
2022/03/03 03:43:20;;;;;;;13.02;11.60;;;-9.30;99.90;;;;;;5106363;27;20530;-59
2022/03/03 03:45:59;;;;;;;12.07;10.98;;;-9.30;99.90;;;;;;5147346;27;20942;-59
2022/03/03 03:48:39;;;;;;;14.98;11.93;;;-9.30;99.90;;;;;;5085818;28;20547;-59
2022/03/03 03:51:19;;;;;;;12.98;11.90;;;-9.40;99.90;;;;;;5086082;28;20684;-59
2022/03/03 03:53:59;;;;;;;17.13;11.52;;;-9.30;99.90;;;;;;5106374;27;20546;-57
2022/03/03 03:56:39;;;;;;;11.45;10.30;;;-9.30;99.90;;;;;;5147479;27;20562;-59
2022/03/03 03:59:18;;;;;;;11.73;10.50;;;-9.30;99.90;;;;;;5147259;27;20938;-59
2022/03/03 04:01:58;;;;;;;11.15;10.02;;;-9.30;99.90;;;;;;5147798;27;21173;-59
2022/03/03 04:04:38;;;;;;;12.68;11.20;;;-9.30;99.90;;;;;;5085658;27;21068;-59
2022/03/03 04:07:18;;;;;;;12.82;11.10;;;-9.40;99.90;;;;;;5147063;27;20689;-59
2022/03/03 04:09:58;;;;;;;11.52;10.63;;;-9.40;99.90;;;;;;5085696;28;20539;-59
2022/03/03 04:12:37;;;;;;;13.50;11.05;;;-9.40;99.90;;;;;;5126989;27;20667;-59
2022/03/03 04:15:17;;;;;;;12.30;11.20;;;-9.40;99.90;;;;;;5085779;28;21017;-59
2022/03/03 04:17:57;;;;;;;11.48;10.27;;;-9.40;99.90;;;;;;5147347;27;20641;-59
2022/03/03 04:20:37;;;;;;;11.55;10.45;;;-9.40;99.90;;;;;;5147731;27;20665;-59
2022/03/03 04:23:19;;;;;;;11.23;10.07;;;-9.40;99.90;;;;;;5086038;28;20668;-59
2022/03/03 04:25:58;;;;;;;11.98;10.98;;;-9.50;99.90;;;;;;5086417;28;20656;-59
2022/03/03 04:28:38;;;;;;;12.57;11.23;;;-9.30;99.90;;;;;;5147575;27;20538;-59
2022/03/03 04:31:18;;;;;;;12.27;11.15;;;-9.30;99.90;;;;;;5086196;28;20684;-59
2022/03/03 04:33:58;;;;;;;12.50;11.30;;;-9.30;99.90;;;;;;5106012;27;20951;-59
2022/03/03 04:36:37;;;;;;;12.48;11.23;;;-9.40;99.90;;;;;;5106439;27;20546;-59
2022/03/03 04:39:17;;;;;;;13.50;11.90;;;-9.40;99.90;;;;;;5085627;28;20671;-59
2022/03/03 04:41:57;;;;;;;12.73;11.63;;;-9.40;99.90;;;;;;5126580;27;20560;-59
2022/03/03 04:44:37;;;;;;;12.88;11.15;;;-9.40;99.90;;;;;;5106483;27;20551;-59
2022/03/03 04:47:17;;;;;;;12.77;11.52;;;-9.20;99.90;;;;;;5106275;27;20534;-59
2022/03/03 04:49:57;;;;;;;12.25;11.02;;;-9.00;99.90;;;;;;5085762;27;21029;-59
2022/03/03 04:52:37;;;;;;;14.20;12.73;;;-9.00;99.90;;;;;;5085380;28;20659;-59
2022/03/03 04:55:16;;;;;;;15.15;13.65;;;-9.00;99.90;;;;;;5105630;27;20575;-59
2022/03/03 04:57:56;;;;;;;13.10;11.93;;;-9.00;99.90;;;;;;5189392;27;20646;-59
2022/03/03 05:00:36;;;;;;;16.33;14.52;;;-9.10;99.90;;;;;;5153341;27;20541;-59
2022/03/03 05:03:16;;;;;;;13.60;12.18;;;-9.10;99.90;;;;;;5147319;27;21221;-59
2022/03/03 05:05:56;;;;;;;17.15;14.45;;;-9.10;99.90;;;;;;5147423;27;20685;-59
2022/03/03 05:08:35;;;;;;;16.15;13.77;;;-9.20;99.90;;;;;;5146993;27;20546;-59
2022/03/03 05:11:15;;;;;;;15.75;13.55;;;-9.30;99.90;;;;;;5105483;27;20832;-59
2022/03/03 05:13:55;;;;;;;14.52;13.05;;;-9.30;99.90;;;;;;5085957;27;20842;-59
2022/03/03 05:16:35;;;;;;;14.30;12.95;;;-9.30;99.90;;;;;;5106171;27;20545;-59
2022/03/03 05:19:15;;;;;;;15.70;13.50;;;-9.30;99.90;;;;;;5085494;27;21045;-59
2022/03/03 05:21:55;;;;;;;15.25;13.75;;;-9.40;99.90;;;;;;5085366;28;20675;-59
2022/03/03 05:24:34;;;;;;;15.98;13.25;;;-9.20;99.90;;;;;;5085499;27;20536;-59
2022/03/03 05:27:15;;;;;;;14.75;13.38;;;-9.30;99.90;;;;;;5085346;27;20544;-59
2022/03/03 05:29:54;;;;;;;18.67;12.68;;;-9.30;99.90;;;;;;5105990;27;20546;-59
2022/03/03 05:32:36;;;;;;;16.88;14.20;;;-9.30;99.90;;;;;;5126664;27;20544;-59
2022/03/03 05:35:16;;;;;;;15.55;13.35;;;-9.20;99.90;;;;;;5106191;27;20665;-58
2022/03/03 05:37:55;;;;;;;17.05;13.30;;;-9.20;99.90;;;;;;5135899;27;21092;-59
2022/03/03 05:40:35;;;;;;;13.77;12.57;;;-9.30;99.90;;;;;;5152061;27;20545;-59
2022/03/03 05:43:15;;;;;;;13.00;11.73;;;-9.30;99.90;;;;;;5085815;28;20668;-59
2022/03/03 05:45:56;;;;;;;15.07;13.48;;;-9.30;99.90;;;;;;5086052;27;20539;-59
2022/03/03 05:48:36;;;;;;;14.27;12.80;;;-9.20;99.90;;;;;;5085298;28;20672;-59
2022/03/03 05:51:16;;;;;;;14.05;12.55;;;-9.30;99.90;;;;;;5085738;28;20691;-59
2022/03/03 05:53:56;;;;;;;13.70;12.38;;;-9.30;99.90;;;;;;5147378;27;20654;-59
2022/03/03 05:56:39;;;;;;;13.40;12.00;;;-9.40;99.90;;;;;;5147755;27;20840;-59
2022/03/03 05:59:22;;;;;;;14.75;13.07;;;-9.40;99.90;;;;;;5147346;27;20650;-57
2022/03/03 06:02:03;;;;;;;15.27;12.57;;;-9.30;99.90;;;;;;5147640;27;20708;-59
2022/03/03 06:04:43;;;;;;;13.80;12.52;;;-9.30;99.90;;;;;;5105531;27;20665;-59
2022/03/03 06:07:26;;;;;;;14.60;13.10;;;-9.30;99.90;;;;;;5081908;27;20577;-59
2022/03/03 06:10:08;;;;;;;13.57;12.32;;;-9.30;99.90;;;;;;5084550;27;20551;-59
2022/03/03 06:12:50;;;;;;;13.93;12.48;;;-9.30;99.90;;;;;;5085114;28;20679;-59
2022/03/03 06:15:30;;;;;;;12.95;11.63;;;-9.30;99.90;;;;;;5083957;27;20551;-59
2022/03/03 06:18:12;;;;;;;11.57;10.35;;;-9.30;99.90;;;;;;5105106;27;20538;-59
2022/03/03 06:20:52;;;;;;;13.60;11.35;;;-9.20;99.90;;;;;;5105055;27;20580;-57
2022/03/03 06:23:31;;;;;;;12.45;11.25;;;-9.10;99.90;;;;;;5086093;27;20592;-58
2022/03/03 06:26:16;;;;;;;11.50;10.38;;;-9.00;99.90;;;;;;5105228;27;20564;-57
2022/03/03 06:28:56;;;;;;;11.25;10.23;;;-9.00;99.90;;;;;;5105142;27;20681;-59
2022/03/03 06:31:36;;;;;;;11.23;10.02;;;-8.90;99.90;;;;;;5085052;28;20703;-59
2022/03/03 06:34:16;;;;;;;13.85;11.48;;;-8.70;99.90;;;;;;5104957;27;20546;-59
2022/03/03 06:36:55;;;;;;;15.07;13.48;;;-8.60;99.90;;;;;;5121782;27;21072;-59
2022/03/03 06:39:35;;;;;;;14.68;13.20;;;-8.50;99.90;;;;;;5141920;27;20665;-59
2022/03/03 06:42:15;;;;;;;12.13;10.93;;;-8.40;99.90;;;;;;5084110;28;20691;-59
2022/03/03 06:44:55;;;;;;;15.45;13.95;;;-8.20;99.90;;;;;;5140962;27;20550;-59
2022/03/03 06:47:35;;;;;;;12.48;11.27;;;-8.00;99.90;;;;;;5126199;27;20952;-59
2022/03/03 06:50:14;;;;;;;12.38;11.25;;;-7.80;99.90;;;;;;5102629;27;21084;-59
2022/03/03 06:52:55;;;;;;;14.38;11.70;;;-7.70;99.90;;;;;;5105800;27;21046;-59
2022/03/03 06:55:36;;;;;;;11.60;10.60;;;-7.60;99.90;;;;;;5105820;27;20665;-59
2022/03/03 06:58:18;;;;;;;12.35;10.77;;;-7.50;99.90;;;;;;5085183;28;21025;-56
2022/03/03 07:00:58;;;;;;;12.75;11.38;;;-7.40;99.90;;;;;;5142695;27;20677;-58
2022/03/03 07:03:37;;;;;;;12.65;11.50;;;-7.20;99.90;;;;;;5085288;27;20540;-58
2022/03/03 07:06:17;;;;;;;13.07;11.98;;;-7.00;99.90;;;;;;5083491;28;20691;-58
2022/03/03 07:08:57;;;;;;;22.63;11.85;;;-6.80;99.90;;;;;;5084581;27;20904;-58
2022/03/03 07:11:39;;;;;;;14.13;12.52;;;-6.70;99.90;;;;;;5090961;27;20675;-58
2022/03/03 07:14:18;;;;;;;12.73;11.52;;;-6.60;99.90;;;;;;5139728;27;20733;-59
2022/03/03 07:17:02;;;;;;;13.02;11.88;;;-6.50;99.90;;;;;;5085338;28;21193;-59
2022/03/03 07:19:55;;;;;;;15.73;12.32;;;-6.40;99.90;;;;;;5105724;27;21026;-58
2022/03/03 07:22:38;;;;;;;12.35;10.75;;;-6.20;99.90;;;;;;5142650;27;20543;-58
2022/03/03 07:25:23;;;;;;;11.73;10.73;;;-6.10;99.90;;;;;;5114118;27;20537;-58
2022/03/03 07:28:06;;;;;;;12.60;11.45;;;-6.00;99.90;;;;;;5145992;27;20653;-58
2022/03/03 07:30:48;;;;;;;11.80;10.52;;;-5.80;99.90;;;;;;5105546;27;20553;-58
2022/03/03 07:33:39;;;;;;;11.85;10.77;;;-5.70;99.90;;;;;;5085385;27;20566;-58
2022/03/03 07:36:25;;;;;;;11.50;10.60;;;-5.60;99.90;;;;;;5082574;27;20555;-58
2022/03/03 07:39:11;;;;;;;13.98;11.05;;;-5.50;99.90;;;;;;5101178;27;20693;-58
2022/03/03 07:41:51;;;;;;;10.48;9.65;;;-5.40;99.90;;;;;;5084264;28;20683;-58
2022/03/03 07:44:30;;;;;;;12.00;10.73;;;-5.30;99.90;;;;;;5078474;27;20564;-58
2022/03/03 07:47:10;;;;;;;10.70;9.77;;;-5.20;99.90;;;;;;5123340;27;21080;-59
2022/03/03 07:49:51;;;;;;;11.30;10.25;;;-5.10;99.90;;;;;;5120381;27;20536;-58
2022/03/03 07:52:30;;;;;;;13.10;11.02;;;-5.00;99.90;;;;;;5085680;27;20542;-58
2022/03/03 07:55:10;;;;;;;11.98;10.82;;;-4.90;99.90;;;;;;5121276;27;20574;-58
2022/03/03 07:57:58;;;;;;;11.80;10.63;;;-4.80;99.90;;;;;;5105234;27;20554;-58
2022/03/03 08:00:40;;;;;;;11.07;10.05;;;-4.70;99.90;;;;;;5095864;27;20577;-58
2022/03/03 08:03:23;;;;;;;11.35;10.43;;;-4.60;99.90;;;;;;5085463;27;20672;-58
2022/03/03 08:06:04;;;;;;;11.00;10.00;;;-4.60;99.90;;;;;;5126070;27;20773;-58
2022/03/03 08:08:45;;;;;;;12.80;11.70;;;-4.50;99.90;;;;;;5104473;27;20673;-58
2022/03/03 08:11:27;;;;;;;13.32;12.15;;;-4.40;99.90;;;;;;5081076;28;20704;-58
2022/03/03 08:14:06;;;;;;;12.15;10.63;;;-4.30;99.90;;;;;;5065231;27;20587;-58
2022/03/03 08:16:47;;;;;;;11.60;10.63;;;-4.20;99.90;;;;;;5101212;27;20706;-58
2022/03/03 08:19:28;;;;;;;11.93;10.90;;;-4.00;99.90;;;;;;5085378;28;20707;-58
2022/03/03 08:22:09;;;;;;;11.43;10.27;;;-3.90;99.90;;;;;;5085219;27;21041;-58
2022/03/03 08:24:49;;;;;;;11.07;10.15;;;-3.80;99.90;;;;;;5100512;27;20547;-58
2022/03/03 08:27:28;;;;;;;12.27;10.75;;;-3.80;99.90;;;;;;5057452;28;20705;-58
2022/03/03 08:30:10;;;;;;;12.20;11.05;;;-3.70;99.90;;;;;;5099760;27;21083;-58
2022/03/03 08:33:00;;;;;;;12.15;10.90;;;-3.60;99.90;;;;;;5081935;28;21047;-58
2022/03/03 08:35:42;;;;;;;12.02;10.82;;;-3.50;99.90;;;;;;5138404;27;21020;-58
2022/03/03 08:38:33;;;;;;;12.02;10.90;;;-3.40;99.90;;;;;;5105723;27;20673;-58
2022/03/03 08:41:15;;;;;;;14.20;11.68;;;-3.30;99.90;;;;;;5147709;27;20669;-58
2022/03/03 08:43:56;;;;;;;17.67;11.43;;;-3.20;99.90;;;;;;5147574;27;20830;-58
2022/03/03 08:46:38;;;;;;;13.77;12.25;;;-3.10;99.90;;;;;;5086028;28;20679;-58
2022/03/03 08:49:17;;;;;;;14.00;12.60;;;-3.00;99.90;;;;;;5144695;27;20837;-58
2022/03/03 08:51:57;;;;;;;14.95;13.30;;;-2.80;99.90;;;;;;5109805;27;20685;-58
2022/03/03 08:54:37;;;;;;;14.55;12.45;;;-2.70;99.90;;;;;;5104453;27;20542;-58
2022/03/03 08:57:17;;;;;;;14.40;11.82;;;-2.70;99.90;;;;;;5081495;28;21232;-58
2022/03/03 08:59:56;;;;;;;13.45;12.30;;;-2.60;99.90;;;;;;5154670;27;20534;-58
2022/03/03 09:02:36;;;;;;;14.43;12.52;;;-2.50;99.90;;;;;;5126932;27;20846;-58
2022/03/03 09:05:16;;;;;;;14.10;12.70;;;-2.40;99.90;;;;;;5085718;27;20545;-58
2022/03/03 09:07:56;;;;;;;13.23;12.02;;;-2.40;99.90;;;;;;5125261;27;20607;-58
2022/03/03 09:10:36;;;;;;;13.45;12.20;;;-2.30;99.90;;;;;;5076337;27;20603;-58
2022/03/03 09:13:16;;;;;;;13.93;12.63;;;-2.30;99.90;;;;;;5104105;27;20546;-58
2022/03/03 09:15:56;;;;;;;13.57;12.35;;;-2.20;99.90;;;;;;5144353;27;20551;-58
2022/03/03 09:18:35;;;;;;;14.23;12.48;;;-2.10;99.90;;;;;;5100617;27;20679;-58
2022/03/03 09:21:16;;;;;;;14.15;12.77;;;-2.00;99.90;;;;;;5094897;27;20576;-58
2022/03/03 09:23:55;;;;;;;13.00;11.95;;;-2.00;99.90;;;;;;5085209;27;20596;-58
2022/03/03 09:26:35;;;;;;;12.82;11.63;;;-1.90;99.90;;;;;;5084717;28;20671;-58
2022/03/03 09:29:16;;;;;;;12.77;11.68;;;-1.80;99.90;;;;;;5085828;27;20570;-58
2022/03/03 09:31:56;;;;;;;13.90;12.50;;;-1.70;99.90;;;;;;5085688;28;21055;-57
2022/03/03 09:34:36;;;;;;;12.60;11.40;;;-1.60;99.90;;;;;;5086730;28;20668;-58
2022/03/03 09:37:17;;;;;;;17.75;13.10;;;-1.60;99.90;;;;;;5106023;27;20666;-57
2022/03/03 09:39:55;;;;;;;13.30;12.30;;;-1.50;99.90;;;;;;5126270;27;20559;-58
2022/03/03 09:42:36;;;;;;;13.65;12.32;;;-1.40;99.90;;;;;;5147096;27;20669;-58
2022/03/03 09:45:15;;;;;;;14.00;12.52;;;-1.40;99.90;;;;;;5081555;28;21026;-58
2022/03/03 09:47:56;;;;;;;13.23;11.85;;;-1.30;99.90;;;;;;5103946;27;21202;-58
2022/03/03 09:50:38;;;;;;;12.77;11.77;;;-1.20;99.90;;;;;;5106410;27;20559;-59
2022/03/03 09:53:18;;;;;;;12.85;11.85;;;-1.10;99.90;;;;;;5085891;27;21088;-58
2022/03/03 09:55:58;;;;;;;13.48;12.13;;;-1.00;99.90;;;;;;5086084;28;20547;-58
2022/03/03 09:58:37;;;;;;;12.75;11.52;;;-0.90;99.90;;;;;;5143875;22;20658;-61
2022/03/03 10:01:18;;;;;;;12.25;11.05;;;-0.70;99.90;;;;;;5103607;27;20545;-60
2022/03/03 10:03:59;;;;;;;13.48;12.38;;;-0.70;99.90;;;;;;5080346;27;20561;-60
2022/03/03 10:06:42;;;;;;;12.73;11.63;;;-0.60;99.90;;;;;;5140881;27;21182;-60
2022/03/03 10:09:22;;;;;;;13.40;11.57;;;-0.50;99.90;;;;;;5124817;27;20555;-60
2022/03/03 10:12:06;;;;;;;15.02;13.57;;;-0.40;99.90;;;;;;5124282;27;20540;-60
2022/03/03 10:14:48;;;;;;;28.98;15.68;;;-0.40;99.90;;;;;;5083213;28;20672;-61
2022/03/03 10:17:37;;;;;;;13.80;12.05;;;-0.20;99.90;;;;;;5082665;27;20983;-60
2022/03/03 10:20:17;;;;;;;13.02;11.93;;;0.00;99.90;;;;;;5085341;27;20593;-60
2022/03/03 10:23:00;;;;;;;17.05;13.23;;;0.00;99.90;;;;;;5124054;27;20548;-60
2022/03/03 10:25:42;;;;;;;14.60;11.75;;;0.10;99.90;;;;;;5082439;27;20555;-60
2022/03/03 10:28:23;;;;;;;13.95;12.68;;;0.30;99.90;;;;;;5141830;27;20539;-60
2022/03/03 10:31:04;;;;;;;17.92;11.07;;;0.30;99.90;;;;;;5079578;28;20664;-60
2022/03/03 10:33:47;;;;;;;14.38;11.82;;;0.50;99.90;;;;;;5080587;28;20574;-60
2022/03/03 10:36:26;;;;;;;11.10;10.20;;;0.70;99.90;;;;;;5082410;27;20531;-60
2022/03/03 10:39:06;;;;;;;13.20;11.02;;;1.00;99.90;;;;;;5126194;27;20554;-60
2022/03/03 10:41:47;;;;;;;10.38;9.38;;;1.10;99.90;;;;;;5136156;27;20684;-60
2022/03/03 10:44:30;;;;;;;16.80;11.52;;;1.30;99.90;;;;;;5098143;27;20579;-60
2022/03/03 10:47:13;;;;;;;9.85;8.93;;;1.60;99.90;;;;;;5079040;28;21051;-60
2022/03/03 10:49:55;;;;;;;12.80;9.48;;;1.70;99.90;;;;;;5077373;28;20693;-60
2022/03/03 10:52:40;;;;;;;10.27;9.20;;;1.70;99.90;;;;;;5123889;27;20536;-60
2022/03/03 10:55:20;;;;;;;10.00;9.13;;;1.80;99.90;;;;;;5082318;27;20540;-60
2022/03/03 10:58:01;;;;;;;9.93;9.20;;;1.80;99.90;;;;;;5081064;28;20680;-60
2022/03/03 11:00:42;;;;;;;9.15;8.38;;;1.80;99.90;;;;;;5082716;27;20535;-60
2022/03/03 11:03:21;;;;;;;10.15;9.23;;;2.10;99.90;;;;;;5082973;27;20672;-60
2022/03/03 11:06:01;;;;;;;9.20;8.40;;;2.40;99.90;;;;;;5080667;27;20591;-60
2022/03/03 11:08:41;;;;;;;10.02;9.13;;;2.70;99.90;;;;;;5113989;27;20742;-60
2022/03/03 11:11:23;;;;;;;9.63;8.57;;;3.00;99.90;;;;;;5120836;27;20551;-60
2022/03/03 11:14:03;;;;;;;10.05;8.73;;;3.20;99.90;;;;;;5144125;27;20677;-60
2022/03/03 11:16:43;;;;;;;9.13;8.20;;;3.30;99.90;;;;;;5119062;27;20544;-57
2022/03/03 11:19:22;;;;;;;8.55;7.68;;;3.40;99.90;;;;;;5093507;27;20676;-60
2022/03/03 11:22:02;;;;;;;8.63;7.93;;;3.60;99.90;;;;;;5084168;28;21087;-60
2022/03/03 11:24:42;;;;;;;9.05;8.05;;;3.80;99.90;;;;;;5083375;27;20636;-60
2022/03/03 11:27:31;;;;;;;8.30;7.60;;;3.90;99.90;;;;;;5103285;27;21143;-60
2022/03/03 11:30:19;;;;;;;8.57;7.88;;;4.00;99.90;;;;;;5084094;27;20684;-60
2022/03/03 11:33:21;;;;;;;8.02;7.28;;;4.10;99.90;;;;;;5082741;28;20660;-60
2022/03/03 11:36:03;;;;;;;7.88;7.10;;;4.10;99.90;;;;;;5125450;27;20544;-58
2022/03/03 11:38:51;;;;;;;8.07;7.45;;;4.30;99.90;;;;;;5082950;27;20692;-60
2022/03/03 11:41:50;;;;;;;7.93;7.32;;;4.30;99.90;;;;;;5076961;27;20581;-60
2022/03/03 11:44:35;;;;;;;7.22;5.93;;;4.30;97.80;;;;;;5080443;28;20684;-60
2022/03/03 11:47:20;;;;;;;6.65;6.00;;;4.40;97.20;;;;;;5135906;27;20673;-60
2022/03/03 11:50:04;;;;;;;6.85;6.10;;;4.50;93.50;;;;;;5068448;27;20575;-60
2022/03/03 11:52:45;;;;;;;7.47;6.78;;;4.60;84.90;;;;;;5103999;27;20560;-60
2022/03/03 11:55:30;;;;;;;7.07;6.47;;;4.70;88.50;;;;;;5131567;27;21195;-60
2022/03/03 11:58:12;;;;;;;7.22;6.70;;;4.70;90.10;;;;;;5103003;27;20670;-60
2022/03/03 12:01:08;;;;;;;6.13;5.63;;;4.70;89.40;;;;;;5103328;27;20646;-60
2022/03/03 12:04:02;;;;;;;7.80;5.82;;;4.90;71.50;;;;;;5142642;27;20555;-60
2022/03/03 12:06:45;;;;;;;6.68;6.07;;;5.10;66.70;;;;;;5099556;27;20576;-60
2022/03/03 12:09:29;;;;;;;5.40;4.90;;;5.30;68.00;;;;;;5080316;28;20708;-60
2022/03/03 12:12:11;;;;;;;6.60;6.00;;;5.40;54.40;;;;;;5080830;28;20695;-60
2022/03/03 12:14:57;;;;;;;6.38;5.78;;;5.40;54.80;;;;;;5103966;27;20665;-60
2022/03/03 12:17:40;;;;;;;5.88;5.40;;;5.40;54.30;;;;;;5139778;27;20668;-60
2022/03/03 12:20:38;;;;;;;8.10;6.60;;;5.40;52.30;;;;;;5062735;28;20693;-60
2022/03/03 12:23:18;;;;;;;7.00;6.50;;;5.50;55.60;;;;;;5104252;27;20545;-60
2022/03/03 12:26:01;;;;;;;6.80;6.20;;;5.50;57.70;;;;;;5083936;27;20536;-60
2022/03/03 12:28:45;;;;;;;7.35;6.72;;;5.60;56.80;;;;;;5083522;28;20968;-60
2022/03/03 12:31:26;;;;;;;6.95;6.35;;;5.60;55.70;;;;;;5120378;27;20553;-60
2022/03/03 12:34:07;;;;;;;6.90;6.30;;;5.60;58.40;;;;;;5142664;27;20689;-60
2022/03/03 12:36:47;;;;;;;6.82;6.32;;;5.60;55.80;;;;;;5119470;27;21242;-60
2022/03/03 12:39:26;;;;;;;7.45;6.53;;;5.60;57.40;;;;;;5149717;27;20550;-60
2022/03/03 12:42:07;;;;;;;6.35;5.80;;;5.60;56.10;;;;;;5104528;27;20669;-60
2022/03/03 12:44:51;;;;;;;6.18;5.53;;;5.50;54.60;;;;;;5137969;22;20709;-59
2022/03/03 12:47:39;;;;;;;4.13;3.83;;;5.70;52.40;;;;;;5123140;27;20532;-59
2022/03/03 12:50:21;;;;;;;3.97;3.55;;;6.00;40.00;;;;;;5103718;27;20680;-59
2022/03/03 12:53:06;;;;;;;3.80;3.50;;;6.10;34.40;;;;;;5102435;27;20701;-59
2022/03/03 12:55:49;;;;;;;3.80;3.55;;;6.20;34.30;;;;;;5081675;27;20935;-59
2022/03/03 12:58:31;;;;;;;10.75;4.60;;;6.20;34.90;;;;;;5083101;27;20540;-60
2022/03/03 13:01:11;;;;;;;5.07;4.68;;;6.20;36.50;;;;;;5103768;27;20673;-59
2022/03/03 13:03:51;;;;;;;5.28;4.88;;;6.20;38.00;;;;;;5081817;27;20572;-60
2022/03/03 13:06:32;;;;;;;4.65;4.25;;;6.30;38.00;;;;;;5104750;27;20542;-60
2022/03/03 13:09:12;;;;;;;5.45;5.00;;;6.30;38.70;;;;;;5144874;27;20660;-60
2022/03/03 13:11:57;;;;;;;5.13;4.80;;;6.40;37.80;;;;;;5081729;28;20684;-59
2022/03/03 13:14:36;;;;;;;5.10;4.65;;;6.40;37.90;;;;;;5124608;27;21072;-60
2022/03/03 13:17:16;;;;;;;4.47;4.07;;;6.40;39.80;;;;;;5083390;27;20552;-60
2022/03/03 13:19:57;;;;;;;4.75;4.38;;;6.50;36.40;;;;;;5144147;27;20665;-60
2022/03/03 13:22:38;;;;;;;5.30;4.90;;;6.50;34.70;;;;;;5105369;27;21202;-56
2022/03/03 13:25:18;;;;;;;4.93;4.53;;;6.50;35.50;;;;;;5146455;27;20547;-59
2022/03/03 13:27:57;;;;;;;4.65;4.35;;;6.40;37.40;;;;;;5082755;27;20547;-60
2022/03/03 13:30:37;;;;;;;4.82;4.53;;;6.50;37.60;;;;;;5084283;27;20569;-60
2022/03/03 13:33:17;;;;;;;5.53;5.00;;;6.40;36.70;;;;;;5082683;27;20540;-59
2022/03/03 13:35:56;;;;;;;5.43;4.93;;;6.40;39.20;;;;;;5143729;27;21194;-59
2022/03/03 13:38:39;;;;;;;6.18;5.68;;;6.50;39.40;;;;;;5097576;27;21078;-60
2022/03/03 13:41:33;;;;;;;5.70;5.30;;;6.50;38.70;;;;;;5075774;27;20551;-59
2022/03/03 13:44:17;;;;;;;5.57;5.07;;;6.50;38.90;;;;;;5077881;27;20580;-60
2022/03/03 13:47:01;;;;;;;5.30;4.90;;;6.60;36.20;;;;;;5097160;27;20677;-57